sensor_id;sensor_type;location;lat;lon;timestamp;pressure;altitude;pressure_sealevel;temperature;humidity
33185;BME280;19550;42.872;25.494;2022-09-17T00:01:37;95542.56;;;16.18;100.00
33185;BME280;19550;42.872;25.494;2022-09-17T00:04:04;95541.84;;;16.21;100.00
33185;BME280;19550;42.872;25.494;2022-09-17T00:06:33;95552.63;;;16.22;100.00
33185;BME280;19550;42.872;25.494;2022-09-17T00:09:00;95539.50;;;16.26;100.00
33185;BME280;19550;42.872;25.494;2022-09-17T00:11:30;95538.44;;;16.35;100.00
33185;BME280;19550;42.872;25.494;2022-09-17T00:13:59;95525.09;;;16.24;100.00
33185;BME280;19550;42.872;25.494;2022-09-17T00:16:29;95522.25;;;16.21;100.00
33185;BME280;19550;42.872;25.494;2022-09-17T00:18:59;95527.84;;;16.21;100.00
33185;BME280;19550;42.872;25.494;2022-09-17T00:21:26;95523.22;;;16.32;100.00
33185;BME280;19550;42.872;25.494;2022-09-17T00:23:54;95521.97;;;16.29;100.00
33185;BME280;19550;42.872;25.494;2022-09-17T00:26:21;95518.19;;;16.45;100.00
33185;BME280;19550;42.872;25.494;2022-09-17T00:28:50;95508.97;;;16.44;100.00
33185;BME280;19550;42.872;25.494;2022-09-17T00:31:17;95515.84;;;16.50;100.00
33185;BME280;19550;42.872;25.494;2022-09-17T00:33:43;95511.41;;;16.46;100.00
33185;BME280;19550;42.872;25.494;2022-09-17T00:36:12;95500.13;;;16.39;100.00
33185;BME280;19550;42.872;25.494;2022-09-17T00:38:39;95494.56;;;16.42;100.00
33185;BME280;19550;42.872;25.494;2022-09-17T00:41:06;95507.34;;;16.43;100.00
33185;BME280;19550;42.872;25.494;2022-09-17T00:43:37;95506.97;;;16.41;100.00
33185;BME280;19550;42.872;25.494;2022-09-17T00:46:08;95505.38;;;16.44;100.00
33185;BME280;19550;42.872;25.494;2022-09-17T00:48:35;95503.03;;;16.49;100.00
33185;BME280;19550;42.872;25.494;2022-09-17T00:51:03;95498.69;;;16.52;100.00
33185;BME280;19550;42.872;25.494;2022-09-17T00:53:32;95496.72;;;16.56;100.00
33185;BME280;19550;42.872;25.494;2022-09-17T00:56:02;95491.94;;;16.56;100.00
33185;BME280;19550;42.872;25.494;2022-09-17T00:58:32;95489.84;;;16.50;100.00
33185;BME280;19550;42.872;25.494;2022-09-17T01:00:59;95499.38;;;16.42;100.00
33185;BME280;19550;42.872;25.494;2022-09-17T01:03:26;95498.13;;;16.39;100.00
33185;BME280;19550;42.872;25.494;2022-09-17T01:05:57;95490.38;;;16.29;100.00
33185;BME280;19550;42.872;25.494;2022-09-17T01:08:33;95490.44;;;16.33;100.00
33185;BME280;19550;42.872;25.494;2022-09-17T01:11:27;95476.75;;;16.24;100.00
33185;BME280;19550;42.872;25.494;2022-09-17T01:14:05;95488.03;;;16.31;100.00
33185;BME280;19550;42.872;25.494;2022-09-17T01:16:41;95475.28;;;16.34;100.00
33185;BME280;19550;42.872;25.494;2022-09-17T01:19:30;95476.81;;;16.27;100.00
33185;BME280;19550;42.872;25.494;2022-09-17T01:22:09;95474.03;;;16.31;100.00
33185;BME280;19550;42.872;25.494;2022-09-17T01:25:02;95466.66;;;16.16;100.00
33185;BME280;19550;42.872;25.494;2022-09-17T01:31:12;95460.19;;;16.08;100.00
33185;BME280;19550;42.872;25.494;2022-09-17T01:33:49;95464.41;;;15.95;100.00
33185;BME280;19550;42.872;25.494;2022-09-17T01:36:31;95457.94;;;15.91;100.00
33185;BME280;19550;42.872;25.494;2022-09-17T01:39:05;95451.88;;;15.85;100.00
33185;BME280;19550;42.872;25.494;2022-09-17T01:41:42;95454.81;;;15.96;100.00
33185;BME280;19550;42.872;25.494;2022-09-17T01:44:15;95446.41;;;15.96;100.00
33185;BME280;19550;42.872;25.494;2022-09-17T01:46:48;95447.63;;;15.95;100.00
33185;BME280;19550;42.872;25.494;2022-09-17T01:49:18;95440.16;;;15.76;100.00
33185;BME280;19550;42.872;25.494;2022-09-17T01:51:47;95445.34;;;15.74;100.00
33185;BME280;19550;42.872;25.494;2022-09-17T01:54:20;95433.38;;;15.77;100.00
33185;BME280;19550;42.872;25.494;2022-09-17T01:56:54;95430.56;;;15.74;100.00
33185;BME280;19550;42.872;25.494;2022-09-17T01:59:24;95429.75;;;15.73;100.00
33185;BME280;19550;42.872;25.494;2022-09-17T02:01:57;95428.47;;;15.67;100.00
33185;BME280;19550;42.872;25.494;2022-09-17T02:04:29;95422.06;;;15.67;100.00
33185;BME280;19550;42.872;25.494;2022-09-17T02:07:01;95416.84;;;15.65;100.00
33185;BME280;19550;42.872;25.494;2022-09-17T02:09:33;95420.91;;;15.68;100.00
33185;BME280;19550;42.872;25.494;2022-09-17T02:12:05;95419.31;;;15.70;100.00
33185;BME280;19550;42.872;25.494;2022-09-17T02:14:37;95430.88;;;15.69;100.00
33185;BME280;19550;42.872;25.494;2022-09-17T02:17:15;95422.41;;;15.62;100.00
33185;BME280;19550;42.872;25.494;2022-09-17T02:19:46;95417.56;;;15.59;100.00
33185;BME280;19550;42.872;25.494;2022-09-17T02:22:20;95419.06;;;15.53;100.00
33185;BME280;19550;42.872;25.494;2022-09-17T02:24:54;95416.97;;;15.49;100.00
33185;BME280;19550;42.872;25.494;2022-09-17T02:27:36;95421.53;;;15.58;100.00
33185;BME280;19550;42.872;25.494;2022-09-17T02:30:08;95423.91;;;15.56;100.00
33185;BME280;19550;42.872;25.494;2022-09-17T02:32:36;95425.50;;;15.57;100.00
33185;BME280;19550;42.872;25.494;2022-09-17T02:35:04;95435.00;;;15.52;100.00
33185;BME280;19550;42.872;25.494;2022-09-17T02:37:32;95432.16;;;15.48;100.00
33185;BME280;19550;42.872;25.494;2022-09-17T02:40:00;95435.56;;;15.38;100.00
33185;BME280;19550;42.872;25.494;2022-09-17T02:42:30;95442.00;;;15.42;100.00
33185;BME280;19550;42.872;25.494;2022-09-17T02:45:05;95441.53;;;15.37;100.00
33185;BME280;19550;42.872;25.494;2022-09-17T02:48:03;95436.72;;;15.34;100.00
33185;BME280;19550;42.872;25.494;2022-09-17T02:50:44;95435.19;;;15.40;100.00
33185;BME280;19550;42.872;25.494;2022-09-17T02:53:23;95429.94;;;15.35;100.00
33185;BME280;19550;42.872;25.494;2022-09-17T02:56:00;95418.38;;;15.36;100.00
33185;BME280;19550;42.872;25.494;2022-09-17T02:58:33;95411.69;;;15.41;100.00
33185;BME280;19550;42.872;25.494;2022-09-17T03:01:07;95418.44;;;15.40;100.00
33185;BME280;19550;42.872;25.494;2022-09-17T03:03:40;95384.97;;;15.43;100.00
33185;BME280;19550;42.872;25.494;2022-09-17T03:06:09;95366.94;;;15.37;100.00
33185;BME280;19550;42.872;25.494;2022-09-17T03:08:38;95365.22;;;15.29;100.00
33185;BME280;19550;42.872;25.494;2022-09-17T03:11:06;95368.72;;;15.23;100.00
33185;BME280;19550;42.872;25.494;2022-09-17T03:13:34;95377.84;;;15.20;100.00
33185;BME280;19550;42.872;25.494;2022-09-17T03:16:02;95375.44;;;15.18;100.00
33185;BME280;19550;42.872;25.494;2022-09-17T03:18:29;95359.75;;;15.10;100.00
33185;BME280;19550;42.872;25.494;2022-09-17T03:20:57;95351.34;;;15.06;100.00
33185;BME280;19550;42.872;25.494;2022-09-17T03:23:24;95356.47;;;15.04;100.00
33185;BME280;19550;42.872;25.494;2022-09-17T03:25:52;95368.00;;;15.03;100.00
33185;BME280;19550;42.872;25.494;2022-09-17T03:28:19;95355.63;;;15.00;100.00
33185;BME280;19550;42.872;25.494;2022-09-17T03:30:46;95349.47;;;14.91;100.00
33185;BME280;19550;42.872;25.494;2022-09-17T03:33:13;95347.81;;;14.87;100.00
33185;BME280;19550;42.872;25.494;2022-09-17T03:35:41;95344.66;;;14.88;100.00
33185;BME280;19550;42.872;25.494;2022-09-17T03:38:10;95344.22;;;14.86;100.00
33185;BME280;19550;42.872;25.494;2022-09-17T03:40:37;95337.88;;;14.89;100.00
33185;BME280;19550;42.872;25.494;2022-09-17T03:43:04;95342.16;;;14.83;100.00
33185;BME280;19550;42.872;25.494;2022-09-17T03:45:31;95333.88;;;14.87;100.00
33185;BME280;19550;42.872;25.494;2022-09-17T03:47:58;95318.16;;;14.75;100.00
33185;BME280;19550;42.872;25.494;2022-09-17T03:50:25;95314.59;;;14.78;100.00
33185;BME280;19550;42.872;25.494;2022-09-17T03:52:52;95317.59;;;14.66;100.00
33185;BME280;19550;42.872;25.494;2022-09-17T03:55:20;95327.63;;;14.70;100.00
33185;BME280;19550;42.872;25.494;2022-09-17T03:57:47;95328.44;;;14.71;100.00
33185;BME280;19550;42.872;25.494;2022-09-17T04:00:14;95328.44;;;14.71;100.00
33185;BME280;19550;42.872;25.494;2022-09-17T04:02:41;95332.47;;;14.74;100.00
33185;BME280;19550;42.872;25.494;2022-09-17T04:05:08;95325.28;;;14.73;100.00
33185;BME280;19550;42.872;25.494;2022-09-17T04:07:35;95321.31;;;14.74;100.00
33185;BME280;19550;42.872;25.494;2022-09-17T04:10:03;95309.81;;;14.79;100.00
33185;BME280;19550;42.872;25.494;2022-09-17T04:12:32;95306.22;;;14.78;100.00
33185;BME280;19550;42.872;25.494;2022-09-17T04:14:59;95305.09;;;14.83;100.00
33185;BME280;19550;42.872;25.494;2022-09-17T04:17:26;95302.75;;;14.85;100.00
33185;BME280;19550;42.872;25.494;2022-09-17T04:19:53;95307.19;;;14.89;100.00
33185;BME280;19550;42.872;25.494;2022-09-17T04:22:20;95286.88;;;14.89;100.00
33185;BME280;19550;42.872;25.494;2022-09-17T04:24:47;95282.53;;;14.91;100.00
33185;BME280;19550;42.872;25.494;2022-09-17T04:27:13;95286.38;;;15.09;100.00
33185;BME280;19550;42.872;25.494;2022-09-17T04:29:42;95278.81;;;15.10;100.00
33185;BME280;19550;42.872;25.494;2022-09-17T04:32:08;95278.88;;;15.14;100.00
33185;BME280;19550;42.872;25.494;2022-09-17T04:34:35;95275.81;;;15.22;100.00
33185;BME280;19550;42.872;25.494;2022-09-17T04:37:02;95283.94;;;15.34;100.00
33185;BME280;19550;42.872;25.494;2022-09-17T04:39:29;95300.78;;;15.41;100.00
33185;BME280;19550;42.872;25.494;2022-09-17T04:41:56;95299.19;;;15.40;100.00
33185;BME280;19550;42.872;25.494;2022-09-17T04:44:23;95301.16;;;15.40;100.00
33185;BME280;19550;42.872;25.494;2022-09-17T04:46:51;95302.09;;;15.51;100.00
33185;BME280;19550;42.872;25.494;2022-09-17T04:49:18;95303.47;;;15.61;100.00
33185;BME280;19550;42.872;25.494;2022-09-17T04:51:44;95300.31;;;15.62;100.00
33185;BME280;19550;42.872;25.494;2022-09-17T04:54:11;95313.94;;;15.67;100.00
33185;BME280;19550;42.872;25.494;2022-09-17T04:56:39;95313.63;;;15.76;100.00
33185;BME280;19550;42.872;25.494;2022-09-17T04:59:05;95316.41;;;15.76;100.00
33185;BME280;19550;42.872;25.494;2022-09-17T05:01:32;95324.66;;;15.95;100.00
33185;BME280;19550;42.872;25.494;2022-09-17T05:04:01;95315.63;;;16.09;100.00
33185;BME280;19550;42.872;25.494;2022-09-17T05:06:27;95310.94;;;16.20;100.00
33185;BME280;19550;42.872;25.494;2022-09-17T05:08:54;95305.09;;;16.36;100.00
33185;BME280;19550;42.872;25.494;2022-09-17T05:11:21;95307.69;;;16.55;100.00
33185;BME280;19550;42.872;25.494;2022-09-17T05:13:48;95311.06;;;16.71;100.00
33185;BME280;19550;42.872;25.494;2022-09-17T05:16:15;95305.56;;;16.85;100.00
33185;BME280;19550;42.872;25.494;2022-09-17T05:18:42;95318.09;;;17.02;100.00
33185;BME280;19550;42.872;25.494;2022-09-17T05:21:10;95306.19;;;17.16;100.00
33185;BME280;19550;42.872;25.494;2022-09-17T05:23:37;95304.72;;;17.32;100.00
33185;BME280;19550;42.872;25.494;2022-09-17T05:26:04;95312.81;;;17.55;100.00
33185;BME280;19550;42.872;25.494;2022-09-17T05:28:30;95304.56;;;17.73;100.00
33185;BME280;19550;42.872;25.494;2022-09-17T05:30:57;95303.81;;;17.86;100.00
33185;BME280;19550;42.872;25.494;2022-09-17T05:33:25;95293.44;;;17.98;100.00
33185;BME280;19550;42.872;25.494;2022-09-17T05:35:51;95300.72;;;18.23;100.00
33185;BME280;19550;42.872;25.494;2022-09-17T05:38:20;95296.38;;;18.40;100.00
33185;BME280;19550;42.872;25.494;2022-09-17T05:40:47;95276.75;;;18.47;100.00
33185;BME280;19550;42.872;25.494;2022-09-17T05:43:14;95283.19;;;18.58;100.00
33185;BME280;19550;42.872;25.494;2022-09-17T05:45:41;95286.00;;;18.76;100.00
33185;BME280;19550;42.872;25.494;2022-09-17T05:48:10;95294.41;;;18.97;100.00
33185;BME280;19550;42.872;25.494;2022-09-17T05:50:38;95292.81;;;19.14;100.00
33185;BME280;19550;42.872;25.494;2022-09-17T05:53:07;95275.13;;;19.31;100.00
33185;BME280;19550;42.872;25.494;2022-09-17T05:55:37;95279.13;;;19.41;100.00
33185;BME280;19550;42.872;25.494;2022-09-17T05:58:09;95277.91;;;19.53;100.00
33185;BME280;19550;42.872;25.494;2022-09-17T06:00:36;95270.19;;;19.78;100.00
33185;BME280;19550;42.872;25.494;2022-09-17T06:03:03;95268.91;;;20.00;100.00
33185;BME280;19550;42.872;25.494;2022-09-17T06:05:30;95273.16;;;20.30;100.00
33185;BME280;19550;42.872;25.494;2022-09-17T06:07:57;95275.41;;;20.56;100.00
33185;BME280;19550;42.872;25.494;2022-09-17T06:10:24;95270.88;;;20.73;100.00
33185;BME280;19550;42.872;25.494;2022-09-17T06:12:55;95277.94;;;20.95;98.95
33185;BME280;19550;42.872;25.494;2022-09-17T06:15:23;95287.47;;;21.12;98.34
33185;BME280;19550;42.872;25.494;2022-09-17T06:17:50;95286.28;;;21.09;97.90
33185;BME280;19550;42.872;25.494;2022-09-17T06:20:17;95285.38;;;21.23;96.72
33185;BME280;19550;42.872;25.494;2022-09-17T06:22:44;95303.72;;;21.41;95.89
33185;BME280;19550;42.872;25.494;2022-09-17T06:25:11;95299.47;;;21.64;94.68
33185;BME280;19550;42.872;25.494;2022-09-17T06:27:38;95300.84;;;21.86;93.76
33185;BME280;19550;42.872;25.494;2022-09-17T06:30:07;95302.13;;;22.15;92.36
33185;BME280;19550;42.872;25.494;2022-09-17T06:32:34;95300.44;;;22.52;93.73
33185;BME280;19550;42.872;25.494;2022-09-17T06:35:01;95300.88;;;22.77;94.42
33185;BME280;19550;42.872;25.494;2022-09-17T06:37:29;95306.94;;;23.03;95.44
33185;BME280;19550;42.872;25.494;2022-09-17T06:39:56;95300.94;;;23.24;90.60
33185;BME280;19550;42.872;25.494;2022-09-17T06:42:24;95291.25;;;23.48;89.73
33185;BME280;19550;42.872;25.494;2022-09-17T06:44:51;95300.56;;;23.68;89.94
33185;BME280;19550;42.872;25.494;2022-09-17T06:47:19;95305.78;;;23.93;88.55
33185;BME280;19550;42.872;25.494;2022-09-17T06:49:46;95309.28;;;24.21;87.80
33185;BME280;19550;42.872;25.494;2022-09-17T06:52:12;95307.31;;;24.37;86.19
33185;BME280;19550;42.872;25.494;2022-09-17T06:54:39;95301.22;;;24.39;90.13
33185;BME280;19550;42.872;25.494;2022-09-17T06:57:06;95308.91;;;24.19;94.14
33185;BME280;19550;42.872;25.494;2022-09-17T06:59:33;95318.53;;;24.01;96.95
33185;BME280;19550;42.872;25.494;2022-09-17T07:02:00;95309.38;;;23.74;100.00
33185;BME280;19550;42.872;25.494;2022-09-17T07:04:28;95316.16;;;23.57;100.00
33185;BME280;19550;42.872;25.494;2022-09-17T07:06:55;95316.63;;;23.28;100.00
33185;BME280;19550;42.872;25.494;2022-09-17T07:09:21;95323.25;;;23.18;100.00
33185;BME280;19550;42.872;25.494;2022-09-17T07:11:48;95327.97;;;23.02;100.00
33185;BME280;19550;42.872;25.494;2022-09-17T07:14:15;95323.53;;;23.01;100.00
33185;BME280;19550;42.872;25.494;2022-09-17T07:16:43;95326.34;;;22.74;100.00
33185;BME280;19550;42.872;25.494;2022-09-17T07:19:10;95331.97;;;22.77;100.00
33185;BME280;19550;42.872;25.494;2022-09-17T07:21:38;95333.94;;;22.80;100.00
33185;BME280;19550;42.872;25.494;2022-09-17T07:24:05;95334.00;;;22.77;100.00
33185;BME280;19550;42.872;25.494;2022-09-17T07:26:32;95342.53;;;22.73;100.00
33185;BME280;19550;42.872;25.494;2022-09-17T07:28:59;95326.38;;;22.70;100.00
33185;BME280;19550;42.872;25.494;2022-09-17T07:31:26;95340.50;;;22.70;100.00
33185;BME280;19550;42.872;25.494;2022-09-17T07:33:53;95331.00;;;22.57;100.00
33185;BME280;19550;42.872;25.494;2022-09-17T07:36:19;95342.22;;;22.64;100.00
33185;BME280;19550;42.872;25.494;2022-09-17T07:38:48;95338.59;;;22.64;100.00
33185;BME280;19550;42.872;25.494;2022-09-17T07:41:16;95334.34;;;22.48;100.00
33185;BME280;19550;42.872;25.494;2022-09-17T07:43:43;95332.00;;;22.43;100.00
33185;BME280;19550;42.872;25.494;2022-09-17T07:46:13;95328.75;;;22.45;100.00
33185;BME280;19550;42.872;25.494;2022-09-17T07:48:40;95331.13;;;22.50;100.00
33185;BME280;19550;42.872;25.494;2022-09-17T07:51:07;95320.50;;;22.57;100.00
33185;BME280;19550;42.872;25.494;2022-09-17T07:53:34;95322.38;;;22.68;100.00
33185;BME280;19550;42.872;25.494;2022-09-17T07:56:02;95317.03;;;23.04;100.00
33185;BME280;19550;42.872;25.494;2022-09-17T07:58:30;95310.66;;;23.46;100.00
33185;BME280;19550;42.872;25.494;2022-09-17T08:01:00;95319.44;;;23.98;100.00
33185;BME280;19550;42.872;25.494;2022-09-17T08:03:28;95315.09;;;24.53;89.68
33185;BME280;19550;42.872;25.494;2022-09-17T08:06:00;95330.28;;;25.15;89.52
33185;BME280;19550;42.872;25.494;2022-09-17T08:08:28;95339.19;;;25.49;76.54
33185;BME280;19550;42.872;25.494;2022-09-17T08:10:59;95326.59;;;25.83;73.54
33185;BME280;19550;42.872;25.494;2022-09-17T08:13:27;95329.25;;;26.19;67.80
33185;BME280;19550;42.872;25.494;2022-09-17T08:15:57;95323.97;;;26.33;70.78
33185;BME280;19550;42.872;25.494;2022-09-17T08:18:24;95324.44;;;26.32;86.15
33185;BME280;19550;42.872;25.494;2022-09-17T08:20:54;95333.41;;;26.30;81.62
33185;BME280;19550;42.872;25.494;2022-09-17T08:23:21;95331.22;;;26.50;81.53
33185;BME280;19550;42.872;25.494;2022-09-17T08:25:51;95333.44;;;26.84;75.59
33185;BME280;19550;42.872;25.494;2022-09-17T08:28:18;95345.53;;;27.14;69.90
33185;BME280;19550;42.872;25.494;2022-09-17T08:30:46;95353.38;;;27.48;68.87
33185;BME280;19550;42.872;25.494;2022-09-17T08:33:14;95348.69;;;27.79;64.93
33185;BME280;19550;42.872;25.494;2022-09-17T08:35:41;95351.91;;;27.81;63.89
33185;BME280;19550;42.872;25.494;2022-09-17T08:38:08;95356.59;;;27.75;64.22
33185;BME280;19550;42.872;25.494;2022-09-17T08:40:41;95344.19;;;27.69;62.04
33185;BME280;19550;42.872;25.494;2022-09-17T08:43:15;95342.59;;;27.55;61.56
33185;BME280;19550;42.872;25.494;2022-09-17T08:45:44;95338.34;;;27.47;60.74
33185;BME280;19550;42.872;25.494;2022-09-17T08:48:12;95344.97;;;27.44;60.31
33185;BME280;19550;42.872;25.494;2022-09-17T08:50:43;95334.50;;;27.54;60.34
33185;BME280;19550;42.872;25.494;2022-09-17T08:53:26;95317.47;;;27.88;58.48
33185;BME280;19550;42.872;25.494;2022-09-17T08:56:06;95311.00;;;28.22;54.88
33185;BME280;19550;42.872;25.494;2022-09-17T08:58:58;95307.56;;;28.49;54.96
33185;BME280;19550;42.872;25.494;2022-09-17T09:01:34;95296.19;;;28.80;54.39
33185;BME280;19550;42.872;25.494;2022-09-17T09:04:34;95286.41;;;29.12;51.36
33185;BME280;19550;42.872;25.494;2022-09-17T09:07:05;95276.41;;;29.56;52.88
33185;BME280;19550;42.872;25.494;2022-09-17T09:09:36;95271.84;;;29.86;48.01
33185;BME280;19550;42.872;25.494;2022-09-17T09:12:10;95280.41;;;29.86;48.37
33185;BME280;19550;42.872;25.494;2022-09-17T09:14:46;95295.81;;;29.80;46.76
33185;BME280;19550;42.872;25.494;2022-09-17T09:17:17;95305.41;;;30.13;48.75
33185;BME280;19550;42.872;25.494;2022-09-17T09:19:48;95300.81;;;30.25;44.78
33185;BME280;19550;42.872;25.494;2022-09-17T09:22:36;95288.41;;;30.37;46.08
33185;BME280;19550;42.872;25.494;2022-09-17T09:25:20;95272.66;;;30.69;45.59
33185;BME280;19550;42.872;25.494;2022-09-17T09:28:14;95269.56;;;31.09;44.12
33185;BME280;19550;42.872;25.494;2022-09-17T09:30:51;95286.03;;;31.23;48.39
33185;BME280;19550;42.872;25.494;2022-09-17T09:33:23;95273.78;;;31.23;43.93
33185;BME280;19550;42.872;25.494;2022-09-17T09:35:53;95290.00;;;31.26;43.86
33185;BME280;19550;42.872;25.494;2022-09-17T09:38:26;95277.81;;;31.49;44.15
33185;BME280;19550;42.872;25.494;2022-09-17T09:41:01;95262.22;;;31.74;44.57
33185;BME280;19550;42.872;25.494;2022-09-17T09:43:37;95258.84;;;31.84;43.20
33185;BME280;19550;42.872;25.494;2022-09-17T09:46:26;95256.13;;;31.81;42.39
33185;BME280;19550;42.872;25.494;2022-09-17T09:49:04;95249.06;;;31.67;42.23
33185;BME280;19550;42.872;25.494;2022-09-17T09:51:45;95224.59;;;31.57;42.80
33185;BME280;19550;42.872;25.494;2022-09-17T09:54:35;95238.59;;;31.64;42.98
33185;BME280;19550;42.872;25.494;2022-09-17T09:57:10;95248.75;;;31.65;42.64
33185;BME280;19550;42.872;25.494;2022-09-17T09:59:38;95252.84;;;31.73;41.77
33185;BME280;19550;42.872;25.494;2022-09-17T10:02:06;95241.28;;;32.06;42.42
33185;BME280;19550;42.872;25.494;2022-09-17T10:04:33;95257.28;;;32.22;41.59
33185;BME280;19550;42.872;25.494;2022-09-17T10:07:03;95255.75;;;32.12;42.02
33185;BME280;19550;42.872;25.494;2022-09-17T10:09:31;95253.13;;;31.99;42.73
33185;BME280;19550;42.872;25.494;2022-09-17T10:12:04;95249.09;;;32.29;40.06
33185;BME280;19550;42.872;25.494;2022-09-17T10:14:41;95239.97;;;32.69;41.03
33185;BME280;19550;42.872;25.494;2022-09-17T10:17:21;95244.31;;;33.09;41.23
33185;BME280;19550;42.872;25.494;2022-09-17T10:20:11;95254.81;;;32.68;39.02
33185;BME280;19550;42.872;25.494;2022-09-17T10:22:41;95250.66;;;32.84;38.65
33185;BME280;19550;42.872;25.494;2022-09-17T10:25:28;95247.78;;;32.69;43.43
33185;BME280;19550;42.872;25.494;2022-09-17T10:27:56;95238.22;;;32.33;42.97
33185;BME280;19550;42.872;25.494;2022-09-17T10:30:26;95251.47;;;32.07;43.52
33185;BME280;19550;42.872;25.494;2022-09-17T10:33:18;95244.47;;;32.08;43.92
33185;BME280;19550;42.872;25.494;2022-09-17T10:35:54;95246.75;;;32.04;43.67
33185;BME280;19550;42.872;25.494;2022-09-17T10:38:29;95236.84;;;32.05;43.44
33185;BME280;19550;42.872;25.494;2022-09-17T10:41:11;95239.31;;;31.98;43.28
33185;BME280;19550;42.872;25.494;2022-09-17T10:43:38;95233.25;;;31.95;45.24
33185;BME280;19550;42.872;25.494;2022-09-17T10:46:08;95237.72;;;31.73;43.59
33185;BME280;19550;42.872;25.494;2022-09-17T10:48:40;95248.47;;;31.54;45.69
33185;BME280;19550;42.872;25.494;2022-09-17T10:51:08;95259.13;;;31.30;46.37
33185;BME280;19550;42.872;25.494;2022-09-17T10:53:58;95264.41;;;30.62;48.23
33185;BME280;19550;42.872;25.494;2022-09-17T10:56:32;95271.25;;;30.37;52.77
33185;BME280;19550;42.872;25.494;2022-09-17T10:59:08;95269.97;;;30.20;53.97
33185;BME280;19550;42.872;25.494;2022-09-17T11:01:51;95281.22;;;29.78;64.09
33185;BME280;19550;42.872;25.494;2022-09-17T11:04:30;95285.50;;;29.24;69.78
33185;BME280;19550;42.872;25.494;2022-09-17T11:10:04;95308.16;;;27.75;82.51
33185;BME280;19550;42.872;25.494;2022-09-17T11:12:41;95297.97;;;27.02;81.92
33185;BME280;19550;42.872;25.494;2022-09-17T11:15:27;95298.69;;;26.52;91.13
33185;BME280;19550;42.872;25.494;2022-09-17T11:18:00;95301.13;;;26.08;92.88
33185;BME280;19550;42.872;25.494;2022-09-17T11:20:44;95314.44;;;25.33;96.63
33185;BME280;19550;42.872;25.494;2022-09-17T11:23:26;95326.91;;;24.68;94.48
33185;BME280;19550;42.872;25.494;2022-09-17T11:26:03;95319.88;;;24.56;92.38
33185;BME280;19550;42.872;25.494;2022-09-17T11:28:41;95316.41;;;24.29;97.97
33185;BME280;19550;42.872;25.494;2022-09-17T11:31:23;95319.19;;;24.32;100.00
33185;BME280;19550;42.872;25.494;2022-09-17T11:34:15;95345.44;;;24.13;100.00
33185;BME280;19550;42.872;25.494;2022-09-17T11:36:52;95335.31;;;23.92;100.00
33185;BME280;19550;42.872;25.494;2022-09-17T11:39:24;95353.91;;;23.93;100.00
33185;BME280;19550;42.872;25.494;2022-09-17T11:41:54;95383.75;;;23.51;100.00
33185;BME280;19550;42.872;25.494;2022-09-17T11:44:26;95401.56;;;23.48;100.00
33185;BME280;19550;42.872;25.494;2022-09-17T11:47:00;95424.50;;;23.27;100.00
33185;BME280;19550;42.872;25.494;2022-09-17T11:49:33;95461.09;;;22.80;100.00
33185;BME280;19550;42.872;25.494;2022-09-17T11:52:05;95489.13;;;22.64;100.00
33185;BME280;19550;42.872;25.494;2022-09-17T11:54:37;95532.25;;;22.31;100.00
33185;BME280;19550;42.872;25.494;2022-09-17T11:57:11;95532.91;;;22.01;100.00
33185;BME280;19550;42.872;25.494;2022-09-17T11:59:43;95561.59;;;21.89;100.00
33185;BME280;19550;42.872;25.494;2022-09-17T12:02:18;95565.00;;;21.62;100.00
33185;BME280;19550;42.872;25.494;2022-09-17T12:04:53;95584.94;;;21.30;100.00
33185;BME280;19550;42.872;25.494;2022-09-17T12:07:30;95585.06;;;20.91;100.00
33185;BME280;19550;42.872;25.494;2022-09-17T12:10:08;95598.84;;;20.43;100.00
33185;BME280;19550;42.872;25.494;2022-09-17T12:12:51;95588.41;;;20.33;100.00
33185;BME280;19550;42.872;25.494;2022-09-17T12:15:22;95558.66;;;20.39;100.00
33185;BME280;19550;42.872;25.494;2022-09-17T12:17:51;95535.28;;;20.60;100.00
33185;BME280;19550;42.872;25.494;2022-09-17T12:20:26;95516.34;;;20.64;100.00
33185;BME280;19550;42.872;25.494;2022-09-17T12:22:56;95478.53;;;20.65;100.00
33185;BME280;19550;42.872;25.494;2022-09-17T12:25:28;95466.03;;;20.70;100.00
33185;BME280;19550;42.872;25.494;2022-09-17T12:28:02;95468.81;;;20.77;100.00
33185;BME280;19550;42.872;25.494;2022-09-17T12:30:36;95436.50;;;20.99;100.00
33185;BME280;19550;42.872;25.494;2022-09-17T12:33:14;95435.56;;;21.23;100.00
33185;BME280;19550;42.872;25.494;2022-09-17T12:36:17;95445.78;;;21.55;100.00
33185;BME280;19550;42.872;25.494;2022-09-17T12:39:08;95440.09;;;21.62;100.00
33185;BME280;19550;42.872;25.494;2022-09-17T12:41:50;95419.19;;;21.59;100.00
33185;BME280;19550;42.872;25.494;2022-09-17T12:44:38;95399.63;;;21.83;100.00
33185;BME280;19550;42.872;25.494;2022-09-17T12:47:31;95377.03;;;21.83;100.00
33185;BME280;19550;42.872;25.494;2022-09-17T12:50:16;95354.00;;;21.91;100.00
33185;BME280;19550;42.872;25.494;2022-09-17T12:52:57;95329.94;;;21.79;100.00
33185;BME280;19550;42.872;25.494;2022-09-17T12:55:40;95314.25;;;21.75;100.00
33185;BME280;19550;42.872;25.494;2022-09-17T12:58:18;95316.66;;;21.76;100.00
33185;BME280;19550;42.872;25.494;2022-09-17T13:00:54;95306.91;;;21.47;100.00
33185;BME280;19550;42.872;25.494;2022-09-17T13:03:28;95284.50;;;21.29;100.00
33185;BME280;19550;42.872;25.494;2022-09-17T13:12:21;95253.94;;;21.65;100.00
33185;BME280;19550;42.872;25.494;2022-09-17T13:15:29;95243.78;;;21.71;100.00
33185;BME280;19550;42.872;25.494;2022-09-17T13:18:07;95248.44;;;21.85;100.00
33185;BME280;19550;42.872;25.494;2022-09-17T13:20:42;95246.91;;;21.80;100.00